createdAt,value
2022-10-28T00:00:08.253Z,8.68
2022-10-28T00:02:36.910Z,11.57
2022-10-28T00:05:07.555Z,8.93
2022-10-28T00:07:35.694Z,13.45
2022-10-28T00:10:05.875Z,11.30
2022-10-28T00:12:37.710Z,12.05
2022-10-28T00:15:08.137Z,13.45
2022-10-28T00:17:37.151Z,11.00
2022-10-28T00:20:09.734Z,9.65
2022-10-28T00:22:42.714Z,11.60
2022-10-28T00:25:15.269Z,9.60
2022-10-28T00:27:48.621Z,10.80
2022-10-28T00:32:49.031Z,11.35
2022-10-28T00:35:17.423Z,12.07
2022-10-28T00:37:45.484Z,9.02
2022-10-28T00:40:14.006Z,11.40
2022-10-28T00:42:46.864Z,8.77
2022-10-28T00:45:18.565Z,9.98
2022-10-28T00:47:54.368Z,9.68
2022-10-28T00:50:46.679Z,10.32
2022-10-28T00:53:18.026Z,12.25
2022-10-28T00:55:47.875Z,10.75
2022-10-28T00:58:16.611Z,11.93
2022-10-28T01:00:47.593Z,13.45
2022-10-28T01:03:17.413Z,12.07
2022-10-28T01:05:55.351Z,9.52
2022-10-28T01:08:24.965Z,12.55
2022-10-28T01:11:06.113Z,21.25
2022-10-28T01:13:46.161Z,12.35
2022-10-28T01:16:24.731Z,12.93
2022-10-28T01:19:07.646Z,15.70
2022-10-28T01:22:17.279Z,12.68
2022-10-28T01:24:58.202Z,10.20
2022-10-28T01:28:10.187Z,10.07
2022-10-28T01:31:01.771Z,11.10
2022-10-28T01:33:33.915Z,12.95
2022-10-28T01:38:37.160Z,10.35
2022-10-28T01:41:10.778Z,13.82
2022-10-28T01:43:43.800Z,11.02
2022-10-28T01:46:16.715Z,15.55
2022-10-28T01:48:51.387Z,10.98
2022-10-28T01:51:24.585Z,12.15
2022-10-28T01:53:54.907Z,13.23
2022-10-28T01:56:50.333Z,15.20
2022-10-28T01:59:21.262Z,16.50
2022-10-28T02:01:51.032Z,19.67
2022-10-28T02:04:22.952Z,15.48
2022-10-28T02:06:54.774Z,16.02
2022-10-28T02:09:34.026Z,12.68
2022-10-28T02:12:15.770Z,15.77
2022-10-28T02:15:18.250Z,13.55
2022-10-28T02:18:06.465Z,15.02
2022-10-28T02:20:43.119Z,16.27
2022-10-28T02:23:20.855Z,19.08
2022-10-28T02:25:54.948Z,13.48
2022-10-28T02:28:25.927Z,13.20
2022-10-28T02:31:00.334Z,12.77
2022-10-28T02:33:32.464Z,11.57
2022-10-28T02:36:05.467Z,17.20
2022-10-28T02:38:38.807Z,12.63
2022-10-28T02:41:11.731Z,16.73
2022-10-28T02:43:44.226Z,19.75
2022-10-28T02:46:14.587Z,17.40
2022-10-28T02:48:47.708Z,16.83
2022-10-28T02:51:19.514Z,16.48
2022-10-28T02:53:58.801Z,16.05
2022-10-28T02:56:28.356Z,14.02
2022-10-28T02:58:58.030Z,15.07
2022-10-28T03:01:26.069Z,17.08
2022-10-28T03:03:56.643Z,18.67
2022-10-28T03:08:56.249Z,13.98
2022-10-28T03:11:25.791Z,16.05
2022-10-28T03:13:54.104Z,15.68
2022-10-28T03:16:22.435Z,16.35
2022-10-28T03:18:52.392Z,17.48
2022-10-28T03:21:21.231Z,14.77
2022-10-28T03:23:52.685Z,13.50
2022-10-28T03:26:21.367Z,12.82
2022-10-28T03:28:51.127Z,19.58
2022-10-28T03:31:19.102Z,15.02
2022-10-28T03:33:50.639Z,15.05
2022-10-28T03:36:19.119Z,17.50
2022-10-28T03:38:48.752Z,15.70
2022-10-28T03:41:19.568Z,19.88
2022-10-28T03:43:50.987Z,15.00
2022-10-28T03:46:19.254Z,19.00
2022-10-28T03:48:49.199Z,17.55
2022-10-28T03:51:17.754Z,16.38
2022-10-28T03:53:45.778Z,18.13
2022-10-28T03:56:14.473Z,14.02
2022-10-28T03:58:47.130Z,15.30
2022-10-28T04:01:17.240Z,18.15
2022-10-28T04:03:45.652Z,22.48
2022-10-28T04:06:14.526Z,14.52
2022-10-28T04:08:43.135Z,16.40
2022-10-28T04:11:11.783Z,16.67
2022-10-28T04:13:42.356Z,18.30
2022-10-28T04:16:12.283Z,21.05
2022-10-28T04:18:48.523Z,16.80
2022-10-28T04:21:18.113Z,15.80
2022-10-28T04:23:48.070Z,16.40
2022-10-28T04:26:19.009Z,16.17
2022-10-28T04:31:20.556Z,21.95
2022-10-28T04:33:49.222Z,17.15
2022-10-28T04:36:18.366Z,19.50
2022-10-28T04:38:49.994Z,19.35
2022-10-28T04:41:19.324Z,22.20
2022-10-28T04:43:47.520Z,23.83
2022-10-28T04:46:17.050Z,16.92
2022-10-28T04:48:48.071Z,17.73
2022-10-28T04:51:16.820Z,21.00
2022-10-28T04:53:47.878Z,17.88
2022-10-28T04:56:23.705Z,22.05
2022-10-28T04:58:52.109Z,18.40
2022-10-28T05:01:21.575Z,17.65
2022-10-28T05:03:51.381Z,17.60
2022-10-28T05:06:29.379Z,18.73
2022-10-28T05:08:59.365Z,21.08
2022-10-28T05:11:30.771Z,15.43
2022-10-28T05:14:01.369Z,18.55
2022-10-28T05:16:29.300Z,19.05
2022-10-28T05:19:00.145Z,21.10
2022-10-28T05:21:28.825Z,21.90
2022-10-28T05:23:56.834Z,20.70
2022-10-28T05:26:25.235Z,22.15
2022-10-28T05:28:53.811Z,26.55
2022-10-28T05:31:23.404Z,27.30
2022-10-28T05:33:51.432Z,21.42
2022-10-28T05:36:20.739Z,18.38
2022-10-28T05:38:52.705Z,17.25
2022-10-28T05:41:23.322Z,17.00
2022-10-28T05:43:53.326Z,18.95
2022-10-28T05:46:22.289Z,19.30
2022-10-28T05:48:50.945Z,20.58
2022-10-28T05:51:21.303Z,17.08
2022-10-28T05:53:51.370Z,18.20
2022-10-28T05:56:22.721Z,20.88
2022-10-28T05:58:54.675Z,17.77
2022-10-28T06:01:25.003Z,22.17
2022-10-28T06:03:53.461Z,21.70
2022-10-28T06:06:23.163Z,19.10
2022-10-28T06:08:51.383Z,19.85
2022-10-28T06:11:18.146Z,23.95
2022-10-28T06:13:47.429Z,21.73
2022-10-28T06:16:20.179Z,20.27
2022-10-28T06:18:52.195Z,20.88
2022-10-28T06:21:21.741Z,19.10
2022-10-28T06:23:50.621Z,25.42
2022-10-28T06:26:18.999Z,22.85
2022-10-28T06:28:47.955Z,23.90
2022-10-28T06:31:16.919Z,25.85
2022-10-28T06:33:46.164Z,16.67
2022-10-28T06:36:20.318Z,22.02
2022-10-28T06:38:54.432Z,17.15
2022-10-28T06:41:23.499Z,17.27
2022-10-28T06:43:53.026Z,20.85
2022-10-28T06:46:21.054Z,18.92
2022-10-28T06:48:51.329Z,18.75
2022-10-28T06:51:19.335Z,13.15
2022-10-28T06:53:52.178Z,17.98
2022-10-28T06:56:23.132Z,12.35
2022-10-28T06:58:53.286Z,19.30
2022-10-28T07:01:24.592Z,17.17
2022-10-28T07:06:23.346Z,16.17
2022-10-28T07:08:53.063Z,13.43
2022-10-28T07:11:23.306Z,21.00
2022-10-28T07:13:53.172Z,15.75
2022-10-28T07:16:21.950Z,17.65
2022-10-28T07:18:50.500Z,11.73
2022-10-28T07:21:21.119Z,12.93
2022-10-28T07:23:52.093Z,15.60
2022-10-28T07:26:20.585Z,20.25
2022-10-28T07:28:51.805Z,15.43
2022-10-28T07:31:22.238Z,13.75
2022-10-28T07:33:54.824Z,17.55
2022-10-28T07:38:59.688Z,16.52
2022-10-28T07:41:28.741Z,15.88
2022-10-28T07:44:02.177Z,13.70
2022-10-28T07:46:31.855Z,16.85
2022-10-28T07:49:00.901Z,12.52
2022-10-28T07:51:30.662Z,13.75
2022-10-28T07:54:02.723Z,9.80
2022-10-28T07:56:38.153Z,16.45
2022-10-28T07:59:07.086Z,16.60
2022-10-28T08:01:36.325Z,15.75
2022-10-28T08:04:05.135Z,16.60
2022-10-28T08:06:37.639Z,21.30
2022-10-28T08:09:08.265Z,12.02
2022-10-28T08:11:38.451Z,17.27
2022-10-28T08:14:06.819Z,19.90
2022-10-28T08:16:36.762Z,12.73
2022-10-28T08:19:07.788Z,10.55
2022-10-28T08:21:39.175Z,10.13
2022-10-28T08:24:09.563Z,13.13
2022-10-28T08:26:44.208Z,17.50
2022-10-28T08:29:12.877Z,11.52
2022-10-28T08:31:43.675Z,10.40
2022-10-28T08:34:13.765Z,8.75
2022-10-28T08:36:42.903Z,12.40
2022-10-28T08:39:13.072Z,12.07
2022-10-28T08:41:47.245Z,9.45
2022-10-28T08:44:31.855Z,13.77
2022-10-28T08:47:14.017Z,10.95
2022-10-28T08:49:49.694Z,9.73
2022-10-28T08:52:30.174Z,10.65
2022-10-28T08:55:06.892Z,7.28
2022-10-28T08:57:40.714Z,12.02
2022-10-28T09:00:17.776Z,13.55
2022-10-28T09:02:55.065Z,9.73
2022-10-28T09:05:27.816Z,9.25
2022-10-28T09:07:58.530Z,10.23
2022-10-28T09:11:00.666Z,10.95
2022-10-28T09:13:38.497Z,7.45
2022-10-28T09:16:16.147Z,7.97
2022-10-28T09:18:56.752Z,11.82
2022-10-28T09:21:38.302Z,10.77
2022-10-28T09:24:16.654Z,9.82
2022-10-28T09:26:56.562Z,10.13
2022-10-28T09:29:43.264Z,9.48
2022-10-28T09:32:19.008Z,9.98
2022-10-28T09:34:52.848Z,9.35
2022-10-28T09:37:24.320Z,9.02
2022-10-28T09:39:59.438Z,10.82
2022-10-28T09:42:33.273Z,11.95
2022-10-28T09:45:05.872Z,12.15
2022-10-28T09:47:40.718Z,8.68
2022-10-28T09:50:19.246Z,9.98
2022-10-28T09:53:00.204Z,9.95
2022-10-28T09:55:29.083Z,9.40
2022-10-28T09:57:59.148Z,7.72
2022-10-28T10:00:30.811Z,13.38
2022-10-28T10:02:59.887Z,8.23
2022-10-28T10:05:28.389Z,11.95
2022-10-28T10:07:58.758Z,8.98
2022-10-28T10:10:29.609Z,12.15
2022-10-28T10:13:05.205Z,10.13
2022-10-28T10:15:37.692Z,9.02
2022-10-28T10:18:07.801Z,11.40
2022-10-28T10:20:49.233Z,9.35
2022-10-28T10:23:27.825Z,6.90
2022-10-28T10:25:59.742Z,12.63
2022-10-28T10:28:30.130Z,10.43
2022-10-28T10:30:59.810Z,10.07
2022-10-28T10:33:30.564Z,8.20
2022-10-28T10:36:02.452Z,7.43
2022-10-28T10:38:35.621Z,8.20
2022-10-28T10:41:05.060Z,9.52
2022-10-28T10:43:35.613Z,10.48
2022-10-28T10:46:06.981Z,8.05
2022-10-28T10:48:39.306Z,10.53
2022-10-28T10:51:23.239Z,8.82
2022-10-28T10:53:54.585Z,8.18
2022-10-28T10:56:29.704Z,9.47
2022-10-28T10:59:02.587Z,6.38
2022-10-28T11:01:39.571Z,13.65
2022-10-28T11:04:09.092Z,14.40
2022-10-28T11:06:40.683Z,10.85
2022-10-28T11:09:20.019Z,10.50
2022-10-28T11:11:48.746Z,12.27
2022-10-28T11:14:26.742Z,10.02
2022-10-28T11:16:58.590Z,10.80
2022-10-28T11:19:32.830Z,7.30
2022-10-28T11:22:11.125Z,6.70
2022-10-28T11:25:12.589Z,10.15
2022-10-28T11:27:56.546Z,6.38
2022-10-28T11:30:45.965Z,7.72
2022-10-28T11:33:34.765Z,10.38
2022-10-28T11:36:17.115Z,8.23
2022-10-28T11:39:05.349Z,12.73
2022-10-28T11:41:41.911Z,11.77
2022-10-28T11:44:19.930Z,8.13
2022-10-28T11:46:56.072Z,6.50
2022-10-28T11:50:02.953Z,8.57
2022-10-28T11:52:45.320Z,8.45
2022-10-28T11:55:23.902Z,9.27
2022-10-28T11:58:01.851Z,10.68
2022-10-28T12:00:46.726Z,13.77
2022-10-28T12:03:54.802Z,11.90
2022-10-28T12:06:33.522Z,10.40
2022-10-28T12:09:14.843Z,8.98
2022-10-28T12:11:52.363Z,9.63
2022-10-28T12:14:25.318Z,10.13
2022-10-28T12:16:58.513Z,10.77
2022-10-28T12:19:31.352Z,14.98
2022-10-28T12:22:04.479Z,12.35
2022-10-28T12:24:36.012Z,10.18
2022-10-28T12:27:15.369Z,15.98
2022-10-28T12:29:50.175Z,14.98
2022-10-28T12:32:21.499Z,15.60
2022-10-28T12:34:55.940Z,9.23
2022-10-28T12:37:30.339Z,12.50
2022-10-28T12:40:03.231Z,11.48
2022-10-28T12:42:35.660Z,7.82
2022-10-28T12:45:08.145Z,7.72
2022-10-28T12:47:43.199Z,13.85
2022-10-28T12:50:22.924Z,12.00
2022-10-28T12:52:56.200Z,9.63
2022-10-28T12:55:32.370Z,9.98
2022-10-28T12:58:06.380Z,11.13
2022-10-28T13:00:42.013Z,9.07
2022-10-28T13:03:13.869Z,9.75
2022-10-28T13:05:47.662Z,7.93
2022-10-28T13:08:53.064Z,16.70
2022-10-28T13:11:54.286Z,9.10
2022-10-28T13:17:40.521Z,12.68
2022-10-28T13:20:16.421Z,12.40
2022-10-28T13:23:15.477Z,10.95
2022-10-28T13:26:07.153Z,12.77
2022-10-28T13:28:38.068Z,12.87
2022-10-28T13:31:09.371Z,15.32
2022-10-28T13:33:41.684Z,13.83
2022-10-28T13:36:19.016Z,11.35
2022-10-28T13:38:54.532Z,14.48
2022-10-28T13:41:46.336Z,10.70
2022-10-28T13:44:28.510Z,8.63
2022-10-28T13:47:27.784Z,9.00
2022-10-28T13:50:22.379Z,12.90
2022-10-28T13:53:28.594Z,9.60
2022-10-28T13:55:59.714Z,15.32
2022-10-28T13:58:28.678Z,10.85
2022-10-28T14:00:57.051Z,7.82
2022-10-28T14:03:26.936Z,8.50
2022-10-28T14:06:00.805Z,11.70
2022-10-28T14:08:31.332Z,13.63
2022-10-28T14:11:04.346Z,9.30
2022-10-28T14:13:34.600Z,6.65
2022-10-28T14:16:20.252Z,9.95
2022-10-28T14:18:57.035Z,13.07
2022-10-28T14:21:25.763Z,8.20
2022-10-28T14:24:33.053Z,10.18
2022-10-28T14:27:31.222Z,10.05
2022-10-28T14:30:27.228Z,9.25
2022-10-28T14:33:23.940Z,10.38
2022-10-28T14:36:00.516Z,9.25
2022-10-28T14:38:48.886Z,8.25
2022-10-28T14:41:51.163Z,8.38
2022-10-28T14:44:34.274Z,15.73
2022-10-28T14:47:12.014Z,11.50
2022-10-28T14:49:43.911Z,8.07
2022-10-28T14:52:17.490Z,13.75
2022-10-28T14:54:49.292Z,13.90
2022-10-28T14:57:23.227Z,7.95
2022-10-28T14:59:52.975Z,10.05
2022-10-28T15:02:24.583Z,10.18
2022-10-28T15:05:07.542Z,9.13
2022-10-28T15:07:38.279Z,9.77
2022-10-28T15:10:16.610Z,11.32
2022-10-28T15:12:46.016Z,6.95
2022-10-28T15:15:20.726Z,8.13
2022-10-28T15:17:53.493Z,14.50
2022-10-28T15:20:24.108Z,13.13
2022-10-28T15:22:53.457Z,11.38
2022-10-28T15:25:24.667Z,9.85
2022-10-28T15:27:53.726Z,15.57
2022-10-28T15:30:25.889Z,11.25
2022-10-28T15:32:58.700Z,12.07
2022-10-28T15:35:41.101Z,10.35
2022-10-28T15:38:38.632Z,14.35
2022-10-28T15:41:46.634Z,8.32
2022-10-28T15:44:43.262Z,10.82
2022-10-28T15:47:31.020Z,12.77
2022-10-28T15:50:22.668Z,12.00
2022-10-28T15:52:53.585Z,9.60
2022-10-28T15:55:47.657Z,12.80
2022-10-28T15:58:37.306Z,7.80
2022-10-28T16:01:10.825Z,11.07
2022-10-28T16:03:46.187Z,11.77
2022-10-28T16:06:28.564Z,16.63
2022-10-28T16:11:31.328Z,12.77
2022-10-28T16:14:02.147Z,8.73
2022-10-28T16:16:32.707Z,10.35
2022-10-28T16:19:07.227Z,14.68
2022-10-28T16:21:37.317Z,15.90
2022-10-28T16:24:08.870Z,11.63
2022-10-28T16:26:37.700Z,14.93
2022-10-28T16:29:06.897Z,14.40
2022-10-28T16:31:37.373Z,13.60
2022-10-28T16:34:12.027Z,16.37
2022-10-28T16:36:40.684Z,9.75
2022-10-28T16:39:13.399Z,13.98
2022-10-28T16:41:44.588Z,13.45
2022-10-28T16:44:17.440Z,15.25
2022-10-28T16:46:45.756Z,15.23
2022-10-28T16:49:15.082Z,12.43
2022-10-28T16:51:45.137Z,10.18
2022-10-28T16:54:13.416Z,12.27
2022-10-28T16:56:42.492Z,15.07
2022-10-28T16:59:11.144Z,17.67
2022-10-28T17:01:39.649Z,12.93
2022-10-28T17:04:12.135Z,14.30
2022-10-28T17:06:41.734Z,11.93
2022-10-28T17:09:11.899Z,18.40
2022-10-28T17:11:40.656Z,16.98
2022-10-28T17:14:12.395Z,16.25
2022-10-28T17:16:43.514Z,16.45
2022-10-28T17:19:12.038Z,15.13
2022-10-28T17:21:43.005Z,15.25
2022-10-28T17:24:13.140Z,14.13
2022-10-28T17:26:41.157Z,13.52
2022-10-28T17:29:10.642Z,15.38
2022-10-28T17:31:38.859Z,14.18
2022-10-28T17:34:08.919Z,16.80
2022-10-28T17:36:38.795Z,16.23
2022-10-28T17:39:16.441Z,15.82
2022-10-28T17:41:53.243Z,14.43
2022-10-28T17:44:22.097Z,13.43
2022-10-28T17:46:58.214Z,14.32
2022-10-28T17:49:26.678Z,14.48
2022-10-28T17:52:04.453Z,19.52
2022-10-28T17:54:36.953Z,11.68
2022-10-28T17:57:09.109Z,14.07
2022-10-28T17:59:40.783Z,13.10
2022-10-28T18:02:12.660Z,15.43
2022-10-28T18:04:41.237Z,13.07
2022-10-28T18:07:10.640Z,11.68
2022-10-28T18:09:42.850Z,11.85
2022-10-28T18:12:12.794Z,12.80
2022-10-28T18:14:42.342Z,15.63
2022-10-28T18:17:13.842Z,14.35
2022-10-28T18:19:42.327Z,15.45
2022-10-28T18:22:12.838Z,13.88
2022-10-28T18:24:43.342Z,15.98
2022-10-28T18:27:11.907Z,11.98
2022-10-28T18:29:40.121Z,14.15
2022-10-28T18:32:12.074Z,14.65
2022-10-28T18:34:42.218Z,12.10
2022-10-28T18:37:11.838Z,13.55
2022-10-28T18:39:41.012Z,14.35
2022-10-28T18:42:13.506Z,15.40
2022-10-28T18:44:42.130Z,13.07
2022-10-28T18:47:10.504Z,20.63
2022-10-28T18:49:38.754Z,18.80
2022-10-28T18:52:07.493Z,12.57
2022-10-28T18:54:35.735Z,11.63
2022-10-28T18:57:04.916Z,15.55
2022-10-28T18:59:43.308Z,25.73
2022-10-28T19:02:24.776Z,15.40
2022-10-28T19:04:52.940Z,19.38
2022-10-28T19:07:22.308Z,13.52
2022-10-28T19:09:50.865Z,17.23
2022-10-28T19:12:19.686Z,17.83
2022-10-28T19:14:50.705Z,14.00
2022-10-28T19:17:19.811Z,16.27
2022-10-28T19:19:51.635Z,19.33
2022-10-28T19:22:24.688Z,15.70
2022-10-28T19:24:54.890Z,21.10
2022-10-28T19:27:23.064Z,16.85
2022-10-28T19:30:00.732Z,15.20
2022-10-28T19:32:30.586Z,17.35
2022-10-28T19:35:00.020Z,16.83
2022-10-28T19:37:28.405Z,13.02
2022-10-28T19:39:56.696Z,12.65
2022-10-28T19:42:29.608Z,17.83
2022-10-28T19:45:01.814Z,22.75
2022-10-28T19:47:30.867Z,20.65
2022-10-28T19:49:59.226Z,15.77
2022-10-28T19:52:27.678Z,14.00
2022-10-28T19:55:01.676Z,15.27
2022-10-28T19:57:32.629Z,13.98
2022-10-28T20:00:03.732Z,15.05
2022-10-28T20:02:32.297Z,18.63
2022-10-28T20:05:04.125Z,16.75
2022-10-28T20:07:34.036Z,19.35
2022-10-28T20:10:04.485Z,13.98
2022-10-28T20:12:35.910Z,15.07
2022-10-28T20:15:08.964Z,11.77
2022-10-28T20:17:38.200Z,18.13
2022-10-28T20:20:07.719Z,16.23
2022-10-28T20:22:41.304Z,14.18
2022-10-28T20:25:11.801Z,13.05
2022-10-28T20:27:40.953Z,14.38
2022-10-28T20:30:14.472Z,11.15
2022-10-28T20:32:46.062Z,16.35
2022-10-28T20:35:14.484Z,16.08
2022-10-28T20:37:42.820Z,21.90
2022-10-28T20:40:13.833Z,16.55
2022-10-28T20:42:42.541Z,22.75
2022-10-28T20:45:19.707Z,17.17
2022-10-28T20:47:49.074Z,22.00
2022-10-28T20:50:18.372Z,16.77
2022-10-28T20:55:38.713Z,18.65
2022-10-28T20:58:09.928Z,19.70
2022-10-28T21:00:39.626Z,14.27
2022-10-28T21:03:13.073Z,15.80
2022-10-28T21:05:42.062Z,13.00
2022-10-28T21:08:10.604Z,15.52
2022-10-28T21:10:40.860Z,16.65
2022-10-28T21:13:09.299Z,17.77
2022-10-28T21:15:40.114Z,17.52
2022-10-28T21:18:12.722Z,13.68
2022-10-28T21:20:43.785Z,11.45
2022-10-28T21:23:13.086Z,11.75
2022-10-28T21:25:42.327Z,15.02
2022-10-28T21:28:13.384Z,12.98
2022-10-28T21:30:45.880Z,16.30
2022-10-28T21:33:14.353Z,25.20
2022-10-28T21:35:43.371Z,16.35
2022-10-28T21:38:14.498Z,14.98
2022-10-28T21:40:42.965Z,11.05
2022-10-28T21:43:11.235Z,20.83
2022-10-28T21:45:39.666Z,11.05
2022-10-28T21:48:11.262Z,13.48
2022-10-28T21:50:39.553Z,12.60
2022-10-28T21:53:07.917Z,14.88
2022-10-28T21:55:48.207Z,14.43
2022-10-28T21:58:20.753Z,16.63
2022-10-28T22:00:48.873Z,14.73
2022-10-28T22:03:18.447Z,12.55
2022-10-28T22:05:58.014Z,16.50
2022-10-28T22:08:28.096Z,17.65
2022-10-28T22:11:01.360Z,16.95
2022-10-28T22:13:30.086Z,13.48
2022-10-28T22:16:00.382Z,13.55
2022-10-28T22:18:32.030Z,14.88
2022-10-28T22:21:07.010Z,18.20
2022-10-28T22:23:45.689Z,15.40
2022-10-28T22:26:17.483Z,11.50
2022-10-28T22:28:49.467Z,15.63
2022-10-28T22:31:23.961Z,16.27
2022-10-28T22:34:07.605Z,17.17
2022-10-28T22:36:40.378Z,13.23
2022-10-28T22:39:09.980Z,17.88
2022-10-28T22:41:39.450Z,13.18
2022-10-28T22:44:08.897Z,19.17
2022-10-28T22:46:37.109Z,16.65
2022-10-28T22:49:07.342Z,14.63
2022-10-28T22:51:35.511Z,13.57
2022-10-28T22:54:04.042Z,12.57
2022-10-28T22:56:34.851Z,19.42
2022-10-28T22:59:04.228Z,10.70
2022-10-28T23:01:32.866Z,11.23
2022-10-28T23:04:02.274Z,15.50
2022-10-28T23:06:33.086Z,16.13
2022-10-28T23:09:03.354Z,16.58
2022-10-28T23:11:31.648Z,20.00
2022-10-28T23:14:03.581Z,15.38
2022-10-28T23:16:38.861Z,16.17
2022-10-28T23:19:07.672Z,14.00
2022-10-28T23:21:42.304Z,14.38
2022-10-28T23:24:11.972Z,12.32
2022-10-28T23:26:41.430Z,17.95
2022-10-28T23:29:09.944Z,15.82
2022-10-28T23:31:38.223Z,16.55
2022-10-28T23:34:08.231Z,26.15
2022-10-28T23:36:38.180Z,13.25
2022-10-28T23:39:06.384Z,14.77
2022-10-28T23:41:34.840Z,13.45
2022-10-28T23:44:10.593Z,15.13
2022-10-28T23:46:39.506Z,23.50
2022-10-28T23:49:10.154Z,12.60
2022-10-28T23:51:40.976Z,13.52
2022-10-28T23:54:11.297Z,17.48
2022-10-28T23:56:39.325Z,15.45
2022-10-28T23:59:07.481Z,11.05
